sensor_id;sensor_type;location;lat;lon;timestamp;P1;durP1;ratioP1;P2;durP2;ratioP2
59516;SDS011;45342;42.662;27.718;2024-01-07T00:01:55;9.05;;;6.30;;
59516;SDS011;45342;42.662;27.718;2024-01-07T00:04:21;7.97;;;5.80;;
59516;SDS011;45342;42.662;27.718;2024-01-07T00:06:47;9.10;;;6.10;;
59516;SDS011;45342;42.662;27.718;2024-01-07T00:09:12;7.95;;;6.10;;
59516;SDS011;45342;42.662;27.718;2024-01-07T00:11:38;7.93;;;5.35;;
59516;SDS011;45342;42.662;27.718;2024-01-07T00:14:06;9.68;;;6.45;;
59516;SDS011;45342;42.662;27.718;2024-01-07T00:16:32;7.70;;;5.32;;
59516;SDS011;45342;42.662;27.718;2024-01-07T00:18:59;8.35;;;5.93;;
59516;SDS011;45342;42.662;27.718;2024-01-07T00:21:25;8.93;;;5.65;;
59516;SDS011;45342;42.662;27.718;2024-01-07T00:23:50;8.57;;;5.80;;
59516;SDS011;45342;42.662;27.718;2024-01-07T00:26:16;7.25;;;5.57;;
59516;SDS011;45342;42.662;27.718;2024-01-07T00:28:42;8.32;;;5.93;;
59516;SDS011;45342;42.662;27.718;2024-01-07T00:31:07;8.65;;;6.00;;
59516;SDS011;45342;42.662;27.718;2024-01-07T00:33:35;8.82;;;5.97;;
59516;SDS011;45342;42.662;27.718;2024-01-07T00:36:02;7.68;;;5.45;;
59516;SDS011;45342;42.662;27.718;2024-01-07T00:38:28;8.60;;;5.80;;
59516;SDS011;45342;42.662;27.718;2024-01-07T00:40:55;8.80;;;6.18;;
59516;SDS011;45342;42.662;27.718;2024-01-07T00:43:21;7.43;;;5.40;;
59516;SDS011;45342;42.662;27.718;2024-01-07T00:45:46;8.20;;;5.60;;
59516;SDS011;45342;42.662;27.718;2024-01-07T00:48:13;7.18;;;5.57;;
59516;SDS011;45342;42.662;27.718;2024-01-07T00:50:42;7.65;;;5.85;;
59516;SDS011;45342;42.662;27.718;2024-01-07T00:53:10;7.57;;;5.75;;
59516;SDS011;45342;42.662;27.718;2024-01-07T00:55:37;8.38;;;5.72;;
59516;SDS011;45342;42.662;27.718;2024-01-07T00:58:03;8.30;;;5.70;;
59516;SDS011;45342;42.662;27.718;2024-01-07T01:00:29;8.40;;;5.65;;
59516;SDS011;45342;42.662;27.718;2024-01-07T01:02:55;7.10;;;5.30;;
59516;SDS011;45342;42.662;27.718;2024-01-07T01:05:21;9.15;;;5.88;;
59516;SDS011;45342;42.662;27.718;2024-01-07T01:07:48;10.65;;;5.68;;
59516;SDS011;45342;42.662;27.718;2024-01-07T01:10:13;7.72;;;5.78;;
59516;SDS011;45342;42.662;27.718;2024-01-07T01:12:42;7.93;;;5.80;;
59516;SDS011;45342;42.662;27.718;2024-01-07T01:15:08;8.18;;;5.78;;
59516;SDS011;45342;42.662;27.718;2024-01-07T01:20:00;9.55;;;5.80;;
59516;SDS011;45342;42.662;27.718;2024-01-07T01:22:25;9.63;;;5.93;;
59516;SDS011;45342;42.662;27.718;2024-01-07T01:24:51;8.55;;;6.03;;
59516;SDS011;45342;42.662;27.718;2024-01-07T01:27:18;10.27;;;6.13;;
59516;SDS011;45342;42.662;27.718;2024-01-07T01:29:45;8.48;;;5.53;;
59516;SDS011;45342;42.662;27.718;2024-01-07T01:32:12;8.60;;;6.00;;
59516;SDS011;45342;42.662;27.718;2024-01-07T01:34:39;11.32;;;5.90;;
59516;SDS011;45342;42.662;27.718;2024-01-07T01:37:05;9.55;;;5.88;;
59516;SDS011;45342;42.662;27.718;2024-01-07T01:39:34;9.07;;;5.97;;
59516;SDS011;45342;42.662;27.718;2024-01-07T01:42:00;8.60;;;5.63;;
59516;SDS011;45342;42.662;27.718;2024-01-07T01:44:26;7.75;;;5.78;;
59516;SDS011;45342;42.662;27.718;2024-01-07T01:46:56;9.60;;;5.93;;
59516;SDS011;45342;42.662;27.718;2024-01-07T01:49:22;8.63;;;5.93;;
59516;SDS011;45342;42.662;27.718;2024-01-07T01:51:49;8.48;;;5.90;;
59516;SDS011;45342;42.662;27.718;2024-01-07T01:54:16;7.57;;;5.50;;
59516;SDS011;45342;42.662;27.718;2024-01-07T01:56:42;7.93;;;5.45;;
59516;SDS011;45342;42.662;27.718;2024-01-07T01:59:09;8.15;;;5.63;;
59516;SDS011;45342;42.662;27.718;2024-01-07T02:01:34;9.05;;;5.80;;
59516;SDS011;45342;42.662;27.718;2024-01-07T02:04:00;7.57;;;5.68;;
59516;SDS011;45342;42.662;27.718;2024-01-07T02:06:27;8.10;;;5.60;;
59516;SDS011;45342;42.662;27.718;2024-01-07T02:08:52;8.07;;;5.55;;
59516;SDS011;45342;42.662;27.718;2024-01-07T02:11:18;9.85;;;5.85;;
59516;SDS011;45342;42.662;27.718;2024-01-07T02:13:45;7.75;;;5.50;;
59516;SDS011;45342;42.662;27.718;2024-01-07T02:16:11;7.50;;;5.53;;
59516;SDS011;45342;42.662;27.718;2024-01-07T02:21:03;7.97;;;5.03;;
59516;SDS011;45342;42.662;27.718;2024-01-07T02:23:30;8.52;;;6.15;;
59516;SDS011;45342;42.662;27.718;2024-01-07T02:25:57;7.28;;;5.70;;
59516;SDS011;45342;42.662;27.718;2024-01-07T02:28:22;8.90;;;5.63;;
59516;SDS011;45342;42.662;27.718;2024-01-07T02:30:48;6.38;;;5.07;;
59516;SDS011;45342;42.662;27.718;2024-01-07T02:33:15;7.00;;;5.40;;
59516;SDS011;45342;42.662;27.718;2024-01-07T02:35:40;8.57;;;5.25;;
59516;SDS011;45342;42.662;27.718;2024-01-07T02:38:07;9.73;;;5.80;;
59516;SDS011;45342;42.662;27.718;2024-01-07T02:40:33;7.68;;;5.32;;
59516;SDS011;45342;42.662;27.718;2024-01-07T02:42:59;8.02;;;5.75;;
59516;SDS011;45342;42.662;27.718;2024-01-07T02:45:25;7.45;;;5.13;;
59516;SDS011;45342;42.662;27.718;2024-01-07T02:47:51;7.75;;;4.80;;
59516;SDS011;45342;42.662;27.718;2024-01-07T02:50:17;7.07;;;5.00;;
59516;SDS011;45342;42.662;27.718;2024-01-07T02:52:45;8.40;;;5.28;;
59516;SDS011;45342;42.662;27.718;2024-01-07T02:55:10;6.53;;;4.85;;
59516;SDS011;45342;42.662;27.718;2024-01-07T02:57:37;7.20;;;5.00;;
59516;SDS011;45342;42.662;27.718;2024-01-07T03:00:04;7.57;;;5.38;;
59516;SDS011;45342;42.662;27.718;2024-01-07T03:02:30;7.13;;;5.25;;
59516;SDS011;45342;42.662;27.718;2024-01-07T03:04:56;8.02;;;5.30;;
59516;SDS011;45342;42.662;27.718;2024-01-07T03:07:22;6.18;;;4.60;;
59516;SDS011;45342;42.662;27.718;2024-01-07T03:09:48;7.03;;;4.85;;
59516;SDS011;45342;42.662;27.718;2024-01-07T03:12:15;7.72;;;5.00;;
59516;SDS011;45342;42.662;27.718;2024-01-07T03:14:42;7.15;;;5.05;;
59516;SDS011;45342;42.662;27.718;2024-01-07T03:17:08;6.38;;;4.85;;
59516;SDS011;45342;42.662;27.718;2024-01-07T03:19:37;6.68;;;4.80;;
59516;SDS011;45342;42.662;27.718;2024-01-07T03:22:03;6.32;;;4.85;;
59516;SDS011;45342;42.662;27.718;2024-01-07T03:24:31;8.48;;;4.90;;
59516;SDS011;45342;42.662;27.718;2024-01-07T03:26:57;6.50;;;4.47;;
59516;SDS011;45342;42.662;27.718;2024-01-07T03:29:23;6.75;;;4.90;;
59516;SDS011;45342;42.662;27.718;2024-01-07T03:31:48;8.60;;;4.93;;
59516;SDS011;45342;42.662;27.718;2024-01-07T03:34:15;6.78;;;4.57;;
59516;SDS011;45342;42.662;27.718;2024-01-07T03:36:42;7.75;;;4.78;;
59516;SDS011;45342;42.662;27.718;2024-01-07T03:39:08;7.45;;;5.07;;
59516;SDS011;45342;42.662;27.718;2024-01-07T03:41:34;7.63;;;4.82;;
59516;SDS011;45342;42.662;27.718;2024-01-07T03:44:05;7.65;;;5.13;;
59516;SDS011;45342;42.662;27.718;2024-01-07T03:46:33;6.63;;;4.38;;
59516;SDS011;45342;42.662;27.718;2024-01-07T03:49:00;6.97;;;4.97;;
59516;SDS011;45342;42.662;27.718;2024-01-07T03:51:25;8.70;;;4.90;;
59516;SDS011;45342;42.662;27.718;2024-01-07T03:53:51;6.82;;;5.18;;
59516;SDS011;45342;42.662;27.718;2024-01-07T03:56:17;8.15;;;5.50;;
59516;SDS011;45342;42.662;27.718;2024-01-07T03:58:42;9.27;;;5.22;;
59516;SDS011;45342;42.662;27.718;2024-01-07T04:01:08;6.72;;;4.45;;
59516;SDS011;45342;42.662;27.718;2024-01-07T04:03:34;7.97;;;4.70;;
59516;SDS011;45342;42.662;27.718;2024-01-07T04:05:59;7.72;;;4.68;;
59516;SDS011;45342;42.662;27.718;2024-01-07T04:08:25;7.25;;;4.90;;
59516;SDS011;45342;42.662;27.718;2024-01-07T04:10:50;6.18;;;4.72;;
59516;SDS011;45342;42.662;27.718;2024-01-07T04:13:16;7.65;;;4.82;;
59516;SDS011;45342;42.662;27.718;2024-01-07T04:15:43;7.70;;;4.68;;
59516;SDS011;45342;42.662;27.718;2024-01-07T04:18:09;7.72;;;5.00;;
59516;SDS011;45342;42.662;27.718;2024-01-07T04:20:35;6.72;;;4.80;;
59516;SDS011;45342;42.662;27.718;2024-01-07T04:23:01;6.18;;;4.60;;
59516;SDS011;45342;42.662;27.718;2024-01-07T04:25:26;7.32;;;4.93;;
59516;SDS011;45342;42.662;27.718;2024-01-07T04:27:53;6.97;;;4.88;;
59516;SDS011;45342;42.662;27.718;2024-01-07T04:30:20;6.18;;;4.60;;
59516;SDS011;45342;42.662;27.718;2024-01-07T04:32:45;6.10;;;4.70;;
59516;SDS011;45342;42.662;27.718;2024-01-07T04:35:11;5.82;;;4.80;;
59516;SDS011;45342;42.662;27.718;2024-01-07T04:37:37;6.25;;;4.30;;
59516;SDS011;45342;42.662;27.718;2024-01-07T04:40:04;6.05;;;4.53;;
59516;SDS011;45342;42.662;27.718;2024-01-07T04:42:34;7.55;;;4.72;;
59516;SDS011;45342;42.662;27.718;2024-01-07T04:44:59;5.90;;;4.53;;
59516;SDS011;45342;42.662;27.718;2024-01-07T04:47:30;6.65;;;4.65;;
59516;SDS011;45342;42.662;27.718;2024-01-07T04:49:59;5.25;;;4.30;;
59516;SDS011;45342;42.662;27.718;2024-01-07T04:52:25;7.25;;;4.25;;
59516;SDS011;45342;42.662;27.718;2024-01-07T04:54:51;5.68;;;4.25;;
59516;SDS011;45342;42.662;27.718;2024-01-07T04:57:18;5.88;;;4.20;;
59516;SDS011;45342;42.662;27.718;2024-01-07T04:59:46;6.88;;;4.35;;
59516;SDS011;45342;42.662;27.718;2024-01-07T05:02:13;6.80;;;4.30;;
59516;SDS011;45342;42.662;27.718;2024-01-07T05:04:39;7.65;;;4.82;;
59516;SDS011;45342;42.662;27.718;2024-01-07T05:07:05;5.25;;;4.18;;
59516;SDS011;45342;42.662;27.718;2024-01-07T05:09:31;6.80;;;4.53;;
59516;SDS011;45342;42.662;27.718;2024-01-07T05:11:57;5.85;;;4.40;;
59516;SDS011;45342;42.662;27.718;2024-01-07T05:14:23;6.35;;;4.50;;
59516;SDS011;45342;42.662;27.718;2024-01-07T05:16:49;6.85;;;4.72;;
59516;SDS011;45342;42.662;27.718;2024-01-07T05:19:14;6.13;;;4.35;;
59516;SDS011;45342;42.662;27.718;2024-01-07T05:21:41;5.43;;;4.15;;
59516;SDS011;45342;42.662;27.718;2024-01-07T05:24:07;6.75;;;4.38;;
59516;SDS011;45342;42.662;27.718;2024-01-07T05:26:39;6.82;;;4.30;;
59516;SDS011;45342;42.662;27.718;2024-01-07T05:29:06;6.10;;;4.30;;
59516;SDS011;45342;42.662;27.718;2024-01-07T05:31:33;6.30;;;4.60;;
59516;SDS011;45342;42.662;27.718;2024-01-07T05:33:59;7.15;;;4.35;;
59516;SDS011;45342;42.662;27.718;2024-01-07T05:36:25;6.47;;;4.22;;
59516;SDS011;45342;42.662;27.718;2024-01-07T05:38:50;5.40;;;4.30;;
59516;SDS011;45342;42.662;27.718;2024-01-07T05:41:17;9.40;;;4.90;;
59516;SDS011;45342;42.662;27.718;2024-01-07T05:43:57;6.32;;;4.45;;
59516;SDS011;45342;42.662;27.718;2024-01-07T05:46:23;8.75;;;4.55;;
59516;SDS011;45342;42.662;27.718;2024-01-07T05:48:49;11.02;;;4.50;;
59516;SDS011;45342;42.662;27.718;2024-01-07T05:53:41;9.20;;;4.68;;
59516;SDS011;45342;42.662;27.718;2024-01-07T05:56:11;9.07;;;4.78;;
59516;SDS011;45342;42.662;27.718;2024-01-07T05:58:37;8.05;;;4.72;;
59516;SDS011;45342;42.662;27.718;2024-01-07T06:01:03;7.65;;;4.65;;
59516;SDS011;45342;42.662;27.718;2024-01-07T06:03:34;9.57;;;4.80;;
59516;SDS011;45342;42.662;27.718;2024-01-07T06:06:00;9.82;;;4.70;;
59516;SDS011;45342;42.662;27.718;2024-01-07T06:08:26;7.70;;;4.35;;
59516;SDS011;45342;42.662;27.718;2024-01-07T06:10:52;7.03;;;4.72;;
59516;SDS011;45342;42.662;27.718;2024-01-07T06:13:18;7.30;;;4.30;;
59516;SDS011;45342;42.662;27.718;2024-01-07T06:15:44;6.63;;;4.03;;
59516;SDS011;45342;42.662;27.718;2024-01-07T06:18:10;8.55;;;4.20;;
59516;SDS011;45342;42.662;27.718;2024-01-07T06:20:36;7.32;;;4.60;;
59516;SDS011;45342;42.662;27.718;2024-01-07T06:23:01;6.18;;;4.03;;
59516;SDS011;45342;42.662;27.718;2024-01-07T06:25:27;6.75;;;3.95;;
59516;SDS011;45342;42.662;27.718;2024-01-07T06:27:53;6.05;;;4.32;;
59516;SDS011;45342;42.662;27.718;2024-01-07T06:30:18;4.50;;;3.60;;
59516;SDS011;45342;42.662;27.718;2024-01-07T06:32:46;6.47;;;4.18;;
59516;SDS011;45342;42.662;27.718;2024-01-07T06:35:13;6.07;;;4.20;;
59516;SDS011;45342;42.662;27.718;2024-01-07T06:37:39;5.03;;;4.03;;
59516;SDS011;45342;42.662;27.718;2024-01-07T06:40:09;6.30;;;4.30;;
59516;SDS011;45342;42.662;27.718;2024-01-07T06:42:36;4.95;;;3.92;;
59516;SDS011;45342;42.662;27.718;2024-01-07T06:45:03;4.78;;;3.65;;
59516;SDS011;45342;42.662;27.718;2024-01-07T06:47:29;6.07;;;3.60;;
59516;SDS011;45342;42.662;27.718;2024-01-07T06:49:54;5.43;;;4.10;;
59516;SDS011;45342;42.662;27.718;2024-01-07T06:52:20;5.20;;;3.88;;
59516;SDS011;45342;42.662;27.718;2024-01-07T06:54:46;6.25;;;4.10;;
59516;SDS011;45342;42.662;27.718;2024-01-07T07:02:54;5.97;;;3.90;;
59516;SDS011;45342;42.662;27.718;2024-01-07T07:05:19;5.47;;;3.65;;
59516;SDS011;45342;42.662;27.718;2024-01-07T07:07:45;5.85;;;3.88;;
59516;SDS011;45342;42.662;27.718;2024-01-07T07:10:11;6.60;;;4.00;;
59516;SDS011;45342;42.662;27.718;2024-01-07T07:12:36;7.45;;;4.00;;
59516;SDS011;45342;42.662;27.718;2024-01-07T07:15:02;6.80;;;3.53;;
59516;SDS011;45342;42.662;27.718;2024-01-07T07:17:28;6.68;;;3.63;;
59516;SDS011;45342;42.662;27.718;2024-01-07T07:19:53;12.20;;;4.05;;
59516;SDS011;45342;42.662;27.718;2024-01-07T07:22:19;16.45;;;4.18;;
59516;SDS011;45342;42.662;27.718;2024-01-07T07:24:45;9.25;;;4.05;;
59516;SDS011;45342;42.662;27.718;2024-01-07T07:27:11;8.48;;;3.65;;
59516;SDS011;45342;42.662;27.718;2024-01-07T07:29:36;9.57;;;4.13;;
59516;SDS011;45342;42.662;27.718;2024-01-07T07:32:02;8.68;;;3.70;;
59516;SDS011;45342;42.662;27.718;2024-01-07T07:34:34;10.15;;;4.05;;
59516;SDS011;45342;42.662;27.718;2024-01-07T07:36:59;3.85;;;3.17;;
59516;SDS011;45342;42.662;27.718;2024-01-07T07:39:27;7.03;;;3.70;;
59516;SDS011;45342;42.662;27.718;2024-01-07T07:41:53;10.13;;;3.55;;
59516;SDS011;45342;42.662;27.718;2024-01-07T07:44:37;6.88;;;3.85;;
59516;SDS011;45342;42.662;27.718;2024-01-07T07:47:11;4.97;;;3.22;;
59516;SDS011;45342;42.662;27.718;2024-01-07T07:52:15;7.43;;;3.47;;
59516;SDS011;45342;42.662;27.718;2024-01-07T07:54:42;7.28;;;3.70;;
59516;SDS011;45342;42.662;27.718;2024-01-07T07:57:08;5.70;;;3.97;;
59516;SDS011;45342;42.662;27.718;2024-01-07T07:59:33;7.22;;;3.58;;
59516;SDS011;45342;42.662;27.718;2024-01-07T08:01:59;6.88;;;3.80;;
59516;SDS011;45342;42.662;27.718;2024-01-07T08:04:25;6.47;;;3.63;;
59516;SDS011;45342;42.662;27.718;2024-01-07T08:06:52;8.02;;;3.50;;
59516;SDS011;45342;42.662;27.718;2024-01-07T08:09:17;7.97;;;3.53;;
59516;SDS011;45342;42.662;27.718;2024-01-07T08:11:43;8.05;;;3.92;;
59516;SDS011;45342;42.662;27.718;2024-01-07T08:14:10;6.07;;;3.60;;
59516;SDS011;45342;42.662;27.718;2024-01-07T08:16:36;6.00;;;3.55;;
59516;SDS011;45342;42.662;27.718;2024-01-07T08:19:02;4.88;;;3.40;;
59516;SDS011;45342;42.662;27.718;2024-01-07T08:21:28;6.18;;;3.70;;
59516;SDS011;45342;42.662;27.718;2024-01-07T08:23:55;5.95;;;3.53;;
59516;SDS011;45342;42.662;27.718;2024-01-07T08:26:29;6.28;;;3.30;;
59516;SDS011;45342;42.662;27.718;2024-01-07T08:28:55;9.13;;;3.47;;
59516;SDS011;45342;42.662;27.718;2024-01-07T08:31:20;9.55;;;3.30;;
59516;SDS011;45342;42.662;27.718;2024-01-07T08:33:46;7.80;;;3.05;;
59516;SDS011;45342;42.662;27.718;2024-01-07T08:36:12;7.95;;;3.20;;
59516;SDS011;45342;42.662;27.718;2024-01-07T08:38:37;6.82;;;3.28;;
59516;SDS011;45342;42.662;27.718;2024-01-07T08:41:03;6.97;;;3.00;;
59516;SDS011;45342;42.662;27.718;2024-01-07T08:45:55;7.20;;;3.13;;
59516;SDS011;45342;42.662;27.718;2024-01-07T08:48:20;7.30;;;3.45;;
59516;SDS011;45342;42.662;27.718;2024-01-07T08:50:46;9.18;;;3.38;;
59516;SDS011;45342;42.662;27.718;2024-01-07T08:53:12;7.10;;;3.17;;
59516;SDS011;45342;42.662;27.718;2024-01-07T08:55:40;6.03;;;3.10;;
59516;SDS011;45342;42.662;27.718;2024-01-07T08:58:06;6.50;;;3.08;;
59516;SDS011;45342;42.662;27.718;2024-01-07T09:00:32;6.75;;;3.45;;
59516;SDS011;45342;42.662;27.718;2024-01-07T09:02:59;6.15;;;3.05;;
59516;SDS011;45342;42.662;27.718;2024-01-07T09:05:24;5.95;;;3.20;;
59516;SDS011;45342;42.662;27.718;2024-01-07T09:07:50;8.27;;;3.58;;
59516;SDS011;45342;42.662;27.718;2024-01-07T09:10:17;8.32;;;3.80;;
59516;SDS011;45342;42.662;27.718;2024-01-07T09:12:44;6.65;;;3.05;;
59516;SDS011;45342;42.662;27.718;2024-01-07T09:15:09;5.95;;;3.30;;
59516;SDS011;45342;42.662;27.718;2024-01-07T09:17:36;7.30;;;3.22;;
59516;SDS011;45342;42.662;27.718;2024-01-07T09:20:03;7.93;;;3.33;;
59516;SDS011;45342;42.662;27.718;2024-01-07T09:22:33;7.53;;;3.53;;
59516;SDS011;45342;42.662;27.718;2024-01-07T09:25:00;8.70;;;3.50;;
59516;SDS011;45342;42.662;27.718;2024-01-07T09:27:28;7.93;;;3.17;;
59516;SDS011;45342;42.662;27.718;2024-01-07T09:29:54;5.45;;;2.60;;
59516;SDS011;45342;42.662;27.718;2024-01-07T09:32:20;8.15;;;3.63;;
59516;SDS011;45342;42.662;27.718;2024-01-07T09:34:48;5.78;;;3.05;;
59516;SDS011;45342;42.662;27.718;2024-01-07T09:37:14;5.97;;;3.03;;
59516;SDS011;45342;42.662;27.718;2024-01-07T09:39:40;12.15;;;3.13;;
59516;SDS011;45342;42.662;27.718;2024-01-07T09:44:34;6.55;;;3.10;;
59516;SDS011;45342;42.662;27.718;2024-01-07T09:47:00;6.68;;;3.40;;
59516;SDS011;45342;42.662;27.718;2024-01-07T09:51:53;8.30;;;3.30;;
59516;SDS011;45342;42.662;27.718;2024-01-07T09:54:26;4.95;;;3.05;;
59516;SDS011;45342;42.662;27.718;2024-01-07T09:56:55;11.25;;;3.50;;
59516;SDS011;45342;42.662;27.718;2024-01-07T09:59:53;11.18;;;3.30;;
59516;SDS011;45342;42.662;27.718;2024-01-07T10:02:20;10.15;;;3.63;;
59516;SDS011;45342;42.662;27.718;2024-01-07T10:04:49;9.23;;;3.10;;
59516;SDS011;45342;42.662;27.718;2024-01-07T10:07:15;10.95;;;3.38;;
59516;SDS011;45342;42.662;27.718;2024-01-07T10:09:42;9.18;;;3.38;;
59516;SDS011;45342;42.662;27.718;2024-01-07T10:12:08;8.02;;;3.13;;
59516;SDS011;45342;42.662;27.718;2024-01-07T10:14:34;7.05;;;3.00;;
59516;SDS011;45342;42.662;27.718;2024-01-07T10:17:01;6.85;;;3.35;;
59516;SDS011;45342;42.662;27.718;2024-01-07T10:19:27;6.82;;;3.03;;
59516;SDS011;45342;42.662;27.718;2024-01-07T10:22:01;6.55;;;3.05;;
59516;SDS011;45342;42.662;27.718;2024-01-07T10:25:02;5.80;;;3.15;;
59516;SDS011;45342;42.662;27.718;2024-01-07T10:27:22;7.55;;;3.15;;
59516;SDS011;45342;42.662;27.718;2024-01-07T10:29:47;8.38;;;3.22;;
59516;SDS011;45342;42.662;27.718;2024-01-07T10:32:17;6.32;;;3.03;;
59516;SDS011;45342;42.662;27.718;2024-01-07T10:34:45;6.05;;;3.05;;
59516;SDS011;45342;42.662;27.718;2024-01-07T10:37:12;5.30;;;2.92;;
59516;SDS011;45342;42.662;27.718;2024-01-07T10:39:38;6.50;;;3.28;;
59516;SDS011;45342;42.662;27.718;2024-01-07T10:42:04;5.93;;;3.00;;
59516;SDS011;45342;42.662;27.718;2024-01-07T10:44:30;5.65;;;3.15;;
59516;SDS011;45342;42.662;27.718;2024-01-07T10:46:57;6.65;;;3.60;;
59516;SDS011;45342;42.662;27.718;2024-01-07T10:49:24;6.00;;;2.80;;
59516;SDS011;45342;42.662;27.718;2024-01-07T10:51:56;9.23;;;3.28;;
59516;SDS011;45342;42.662;27.718;2024-01-07T10:54:23;8.80;;;3.17;;
59516;SDS011;45342;42.662;27.718;2024-01-07T10:56:50;7.07;;;3.22;;
59516;SDS011;45342;42.662;27.718;2024-01-07T10:59:16;7.95;;;2.92;;
59516;SDS011;45342;42.662;27.718;2024-01-07T11:01:42;6.70;;;3.20;;
59516;SDS011;45342;42.662;27.718;2024-01-07T11:04:10;10.70;;;3.67;;
59516;SDS011;45342;42.662;27.718;2024-01-07T11:06:46;7.45;;;3.25;;
59516;SDS011;45342;42.662;27.718;2024-01-07T11:11:54;6.78;;;3.25;;
59516;SDS011;45342;42.662;27.718;2024-01-07T11:17:02;8.00;;;3.17;;
59516;SDS011;45342;42.662;27.718;2024-01-07T11:19:28;6.55;;;2.90;;
59516;SDS011;45342;42.662;27.718;2024-01-07T11:24:50;9.18;;;3.08;;
59516;SDS011;45342;42.662;27.718;2024-01-07T11:27:16;7.13;;;3.25;;
59516;SDS011;45342;42.662;27.718;2024-01-07T11:29:42;8.32;;;3.15;;
59516;SDS011;45342;42.662;27.718;2024-01-07T11:32:10;7.63;;;3.00;;
59516;SDS011;45342;42.662;27.718;2024-01-07T11:34:39;7.97;;;3.38;;
59516;SDS011;45342;42.662;27.718;2024-01-07T11:37:17;7.28;;;3.22;;
59516;SDS011;45342;42.662;27.718;2024-01-07T11:39:43;5.88;;;3.13;;
59516;SDS011;45342;42.662;27.718;2024-01-07T11:42:12;7.18;;;3.05;;
59516;SDS011;45342;42.662;27.718;2024-01-07T11:44:44;10.63;;;3.22;;
59516;SDS011;45342;42.662;27.718;2024-01-07T11:47:14;8.07;;;3.40;;
59516;SDS011;45342;42.662;27.718;2024-01-07T11:49:41;8.10;;;3.17;;
59516;SDS011;45342;42.662;27.718;2024-01-07T11:54:34;7.85;;;3.30;;
59516;SDS011;45342;42.662;27.718;2024-01-07T11:57:00;8.68;;;3.40;;
59516;SDS011;45342;42.662;27.718;2024-01-07T11:59:26;6.13;;;2.85;;
59516;SDS011;45342;42.662;27.718;2024-01-07T12:01:52;8.57;;;3.13;;
59516;SDS011;45342;42.662;27.718;2024-01-07T12:04:20;7.55;;;3.50;;
59516;SDS011;45342;42.662;27.718;2024-01-07T12:06:46;8.40;;;3.35;;
59516;SDS011;45342;42.662;27.718;2024-01-07T12:09:15;12.43;;;3.83;;
59516;SDS011;45342;42.662;27.718;2024-01-07T12:11:40;10.30;;;3.20;;
59516;SDS011;45342;42.662;27.718;2024-01-07T12:14:07;7.38;;;3.33;;
59516;SDS011;45342;42.662;27.718;2024-01-07T12:16:35;9.55;;;3.65;;
59516;SDS011;45342;42.662;27.718;2024-01-07T12:19:00;6.70;;;3.10;;
59516;SDS011;45342;42.662;27.718;2024-01-07T12:21:26;9.93;;;3.65;;
59516;SDS011;45342;42.662;27.718;2024-01-07T12:23:53;11.00;;;3.75;;
59516;SDS011;45342;42.662;27.718;2024-01-07T12:26:19;10.93;;;3.83;;
59516;SDS011;45342;42.662;27.718;2024-01-07T12:28:51;9.40;;;3.33;;
59516;SDS011;45342;42.662;27.718;2024-01-07T12:31:22;10.57;;;3.40;;
59516;SDS011;45342;42.662;27.718;2024-01-07T12:33:49;10.40;;;3.33;;
59516;SDS011;45342;42.662;27.718;2024-01-07T12:36:14;8.82;;;3.72;;
59516;SDS011;45342;42.662;27.718;2024-01-07T12:38:40;7.18;;;3.25;;
59516;SDS011;45342;42.662;27.718;2024-01-07T12:41:06;10.65;;;3.25;;
59516;SDS011;45342;42.662;27.718;2024-01-07T12:43:32;11.93;;;3.97;;
59516;SDS011;45342;42.662;27.718;2024-01-07T12:48:29;7.50;;;3.45;;
59516;SDS011;45342;42.662;27.718;2024-01-07T12:50:56;8.35;;;3.28;;
59516;SDS011;45342;42.662;27.718;2024-01-07T12:53:22;10.80;;;3.30;;
59516;SDS011;45342;42.662;27.718;2024-01-07T12:55:48;9.52;;;3.42;;
59516;SDS011;45342;42.662;27.718;2024-01-07T12:58:15;8.43;;;3.28;;
59516;SDS011;45342;42.662;27.718;2024-01-07T13:01:00;9.18;;;3.17;;
59516;SDS011;45342;42.662;27.718;2024-01-07T13:03:26;8.45;;;3.42;;
59516;SDS011;45342;42.662;27.718;2024-01-07T13:05:51;9.70;;;4.05;;
59516;SDS011;45342;42.662;27.718;2024-01-07T13:08:17;7.07;;;3.13;;
59516;SDS011;45342;42.662;27.718;2024-01-07T13:10:51;7.03;;;3.05;;
59516;SDS011;45342;42.662;27.718;2024-01-07T13:15:43;5.78;;;2.83;;
59516;SDS011;45342;42.662;27.718;2024-01-07T13:18:10;7.93;;;3.17;;
59516;SDS011;45342;42.662;27.718;2024-01-07T13:20:37;7.05;;;3.13;;
59516;SDS011;45342;42.662;27.718;2024-01-07T13:23:05;10.60;;;3.10;;
59516;SDS011;45342;42.662;27.718;2024-01-07T13:25:31;8.95;;;2.92;;
59516;SDS011;45342;42.662;27.718;2024-01-07T13:27:57;6.57;;;3.17;;
59516;SDS011;45342;42.662;27.718;2024-01-07T13:32:50;9.68;;;3.20;;
59516;SDS011;45342;42.662;27.718;2024-01-07T13:35:17;7.07;;;3.55;;
59516;SDS011;45342;42.662;27.718;2024-01-07T13:37:43;5.75;;;3.20;;
59516;SDS011;45342;42.662;27.718;2024-01-07T13:40:09;10.20;;;3.63;;
59516;SDS011;45342;42.662;27.718;2024-01-07T13:42:38;7.15;;;3.30;;
59516;SDS011;45342;42.662;27.718;2024-01-07T13:45:04;7.68;;;3.00;;
59516;SDS011;45342;42.662;27.718;2024-01-07T13:47:30;9.73;;;3.00;;
59516;SDS011;45342;42.662;27.718;2024-01-07T13:49:56;7.65;;;3.08;;
59516;SDS011;45342;42.662;27.718;2024-01-07T13:52:22;5.80;;;2.65;;
59516;SDS011;45342;42.662;27.718;2024-01-07T13:54:48;7.30;;;2.95;;
59516;SDS011;45342;42.662;27.718;2024-01-07T13:57:13;7.72;;;3.45;;
59516;SDS011;45342;42.662;27.718;2024-01-07T13:59:39;7.88;;;3.03;;
59516;SDS011;45342;42.662;27.718;2024-01-07T14:02:06;7.35;;;2.92;;
59516;SDS011;45342;42.662;27.718;2024-01-07T14:04:33;6.55;;;3.15;;
59516;SDS011;45342;42.662;27.718;2024-01-07T14:06:59;6.38;;;2.75;;
59516;SDS011;45342;42.662;27.718;2024-01-07T14:09:24;7.20;;;3.17;;
59516;SDS011;45342;42.662;27.718;2024-01-07T14:11:50;6.88;;;3.08;;
59516;SDS011;45342;42.662;27.718;2024-01-07T14:14:17;10.70;;;3.70;;
59516;SDS011;45342;42.662;27.718;2024-01-07T14:16:44;6.85;;;2.90;;
59516;SDS011;45342;42.662;27.718;2024-01-07T14:19:10;11.73;;;3.17;;
59516;SDS011;45342;42.662;27.718;2024-01-07T14:21:37;8.88;;;3.45;;
59516;SDS011;45342;42.662;27.718;2024-01-07T14:24:02;8.55;;;2.83;;
59516;SDS011;45342;42.662;27.718;2024-01-07T14:26:28;7.95;;;3.90;;
59516;SDS011;45342;42.662;27.718;2024-01-07T14:28:54;9.98;;;4.05;;
59516;SDS011;45342;42.662;27.718;2024-01-07T14:31:19;14.00;;;4.60;;
59516;SDS011;45342;42.662;27.718;2024-01-07T14:33:45;11.68;;;4.47;;
59516;SDS011;45342;42.662;27.718;2024-01-07T14:36:12;9.90;;;4.45;;
59516;SDS011;45342;42.662;27.718;2024-01-07T14:38:45;9.73;;;4.57;;
59516;SDS011;45342;42.662;27.718;2024-01-07T14:41:14;12.65;;;4.57;;
59516;SDS011;45342;42.662;27.718;2024-01-07T14:43:41;11.80;;;4.63;;
59516;SDS011;45342;42.662;27.718;2024-01-07T14:46:07;9.82;;;4.15;;
59516;SDS011;45342;42.662;27.718;2024-01-07T14:48:33;8.45;;;4.18;;
59516;SDS011;45342;42.662;27.718;2024-01-07T14:50:59;14.90;;;4.57;;
59516;SDS011;45342;42.662;27.718;2024-01-07T14:53:25;7.78;;;3.55;;
59516;SDS011;45342;42.662;27.718;2024-01-07T14:55:53;9.63;;;4.10;;
59516;SDS011;45342;42.662;27.718;2024-01-07T14:58:19;9.07;;;4.00;;
59516;SDS011;45342;42.662;27.718;2024-01-07T15:00:46;9.10;;;3.60;;
59516;SDS011;45342;42.662;27.718;2024-01-07T15:03:13;7.00;;;3.35;;
59516;SDS011;45342;42.662;27.718;2024-01-07T15:05:38;8.40;;;3.65;;
59516;SDS011;45342;42.662;27.718;2024-01-07T15:08:06;8.10;;;3.40;;
59516;SDS011;45342;42.662;27.718;2024-01-07T15:10:33;8.05;;;3.35;;
59516;SDS011;45342;42.662;27.718;2024-01-07T15:12:58;6.45;;;3.10;;